sensor_id;sensor_type;location;lat;lon;timestamp;P1;durP1;ratioP1;P2;durP2;ratioP2
16826;SDS011;8530;49.540;8.576;2024-01-11T00:01:34;53.50;;;37.87;;
16826;SDS011;8530;49.540;8.576;2024-01-11T00:04:01;41.00;;;30.50;;
16826;SDS011;8530;49.540;8.576;2024-01-11T00:06:28;43.47;;;30.33;;
16826;SDS011;8530;49.540;8.576;2024-01-11T00:08:54;44.80;;;31.27;;
16826;SDS011;8530;49.540;8.576;2024-01-11T00:11:21;54.33;;;33.23;;
16826;SDS011;8530;49.540;8.576;2024-01-11T00:13:48;58.10;;;40.17;;
16826;SDS011;8530;49.540;8.576;2024-01-11T00:16:14;41.40;;;28.93;;
16826;SDS011;8530;49.540;8.576;2024-01-11T00:18:42;43.83;;;30.27;;
16826;SDS011;8530;49.540;8.576;2024-01-11T00:21:10;43.93;;;28.20;;
16826;SDS011;8530;49.540;8.576;2024-01-11T00:23:36;40.67;;;29.17;;
16826;SDS011;8530;49.540;8.576;2024-01-11T00:26:03;40.80;;;28.47;;
16826;SDS011;8530;49.540;8.576;2024-01-11T00:28:30;41.67;;;28.50;;
16826;SDS011;8530;49.540;8.576;2024-01-11T00:30:57;38.17;;;27.93;;
16826;SDS011;8530;49.540;8.576;2024-01-11T00:33:23;36.63;;;28.47;;
16826;SDS011;8530;49.540;8.576;2024-01-11T00:35:51;40.13;;;29.70;;
16826;SDS011;8530;49.540;8.576;2024-01-11T00:38:18;43.23;;;30.43;;
16826;SDS011;8530;49.540;8.576;2024-01-11T00:40:45;37.97;;;29.27;;
16826;SDS011;8530;49.540;8.576;2024-01-11T00:43:12;36.97;;;27.40;;
16826;SDS011;8530;49.540;8.576;2024-01-11T00:45:38;40.10;;;28.67;;
16826;SDS011;8530;49.540;8.576;2024-01-11T00:48:05;38.90;;;26.63;;
16826;SDS011;8530;49.540;8.576;2024-01-11T00:50:32;38.13;;;25.90;;
16826;SDS011;8530;49.540;8.576;2024-01-11T00:53:00;40.70;;;29.70;;
16826;SDS011;8530;49.540;8.576;2024-01-11T00:55:26;46.17;;;29.70;;
16826;SDS011;8530;49.540;8.576;2024-01-11T00:57:53;42.83;;;28.03;;
16826;SDS011;8530;49.540;8.576;2024-01-11T01:00:20;41.80;;;30.60;;
16826;SDS011;8530;49.540;8.576;2024-01-11T01:02:47;34.90;;;27.00;;
16826;SDS011;8530;49.540;8.576;2024-01-11T01:05:13;40.13;;;28.10;;
16826;SDS011;8530;49.540;8.576;2024-01-11T01:07:40;39.40;;;27.43;;
16826;SDS011;8530;49.540;8.576;2024-01-11T01:10:08;34.47;;;26.93;;
16826;SDS011;8530;49.540;8.576;2024-01-11T01:12:35;35.57;;;25.37;;
16826;SDS011;8530;49.540;8.576;2024-01-11T01:15:02;34.23;;;25.37;;
16826;SDS011;8530;49.540;8.576;2024-01-11T01:17:29;35.37;;;27.47;;
16826;SDS011;8530;49.540;8.576;2024-01-11T01:19:55;37.50;;;26.10;;
16826;SDS011;8530;49.540;8.576;2024-01-11T01:22:22;41.47;;;29.67;;
16826;SDS011;8530;49.540;8.576;2024-01-11T01:24:52;42.93;;;30.70;;
16826;SDS011;8530;49.540;8.576;2024-01-11T01:27:20;39.67;;;30.00;;
16826;SDS011;8530;49.540;8.576;2024-01-11T01:29:46;41.77;;;31.27;;
16826;SDS011;8530;49.540;8.576;2024-01-11T01:32:13;34.97;;;26.37;;
16826;SDS011;8530;49.540;8.576;2024-01-11T01:34:40;35.77;;;26.57;;
16826;SDS011;8530;49.540;8.576;2024-01-11T01:37:07;36.17;;;27.47;;
16826;SDS011;8530;49.540;8.576;2024-01-11T01:39:36;39.77;;;29.17;;
16826;SDS011;8530;49.540;8.576;2024-01-11T01:42:04;37.10;;;27.47;;
16826;SDS011;8530;49.540;8.576;2024-01-11T01:44:32;38.17;;;27.40;;
16826;SDS011;8530;49.540;8.576;2024-01-11T01:46:59;33.80;;;25.80;;
16826;SDS011;8530;49.540;8.576;2024-01-11T01:49:26;37.73;;;28.70;;
16826;SDS011;8530;49.540;8.576;2024-01-11T01:51:53;37.87;;;26.47;;
16826;SDS011;8530;49.540;8.576;2024-01-11T01:54:20;37.03;;;27.87;;
16826;SDS011;8530;49.540;8.576;2024-01-11T01:56:48;40.43;;;28.47;;
16826;SDS011;8530;49.540;8.576;2024-01-11T01:59:15;34.57;;;26.60;;
16826;SDS011;8530;49.540;8.576;2024-01-11T02:01:43;34.10;;;24.27;;
16826;SDS011;8530;49.540;8.576;2024-01-11T02:04:10;32.10;;;26.30;;
16826;SDS011;8530;49.540;8.576;2024-01-11T02:06:37;29.53;;;24.53;;
16826;SDS011;8530;49.540;8.576;2024-01-11T02:09:04;29.90;;;23.70;;
16826;SDS011;8530;49.540;8.576;2024-01-11T02:11:33;37.57;;;27.00;;
16826;SDS011;8530;49.540;8.576;2024-01-11T02:14:00;34.00;;;25.20;;
16826;SDS011;8530;49.540;8.576;2024-01-11T02:16:27;35.60;;;25.13;;
16826;SDS011;8530;49.540;8.576;2024-01-11T02:18:55;32.60;;;24.53;;
16826;SDS011;8530;49.540;8.576;2024-01-11T02:21:22;35.27;;;25.20;;
16826;SDS011;8530;49.540;8.576;2024-01-11T02:24:06;37.07;;;27.53;;
16826;SDS011;8530;49.540;8.576;2024-01-11T02:26:34;30.23;;;22.83;;
16826;SDS011;8530;49.540;8.576;2024-01-11T02:29:00;31.77;;;24.07;;
16826;SDS011;8530;49.540;8.576;2024-01-11T02:31:27;35.40;;;27.57;;
16826;SDS011;8530;49.540;8.576;2024-01-11T02:33:54;32.43;;;24.67;;
16826;SDS011;8530;49.540;8.576;2024-01-11T02:36:22;35.27;;;24.20;;
16826;SDS011;8530;49.540;8.576;2024-01-11T02:38:51;33.03;;;25.13;;
16826;SDS011;8530;49.540;8.576;2024-01-11T02:41:20;31.17;;;24.30;;
16826;SDS011;8530;49.540;8.576;2024-01-11T02:43:47;34.37;;;26.70;;
16826;SDS011;8530;49.540;8.576;2024-01-11T02:46:14;33.27;;;25.73;;
16826;SDS011;8530;49.540;8.576;2024-01-11T02:48:41;34.47;;;25.27;;
16826;SDS011;8530;49.540;8.576;2024-01-11T02:51:08;36.60;;;25.10;;
16826;SDS011;8530;49.540;8.576;2024-01-11T02:53:34;35.37;;;27.60;;
16826;SDS011;8530;49.540;8.576;2024-01-11T02:56:01;34.23;;;26.83;;
16826;SDS011;8530;49.540;8.576;2024-01-11T02:58:29;36.03;;;25.40;;
16826;SDS011;8530;49.540;8.576;2024-01-11T03:00:56;37.17;;;26.27;;
16826;SDS011;8530;49.540;8.576;2024-01-11T03:03:23;37.63;;;25.80;;
16826;SDS011;8530;49.540;8.576;2024-01-11T03:05:49;34.53;;;26.53;;
16826;SDS011;8530;49.540;8.576;2024-01-11T03:08:16;33.40;;;25.63;;
16826;SDS011;8530;49.540;8.576;2024-01-11T03:10:43;41.17;;;27.13;;
16826;SDS011;8530;49.540;8.576;2024-01-11T03:13:09;31.20;;;24.30;;
16826;SDS011;8530;49.540;8.576;2024-01-11T03:15:39;34.53;;;25.80;;
16826;SDS011;8530;49.540;8.576;2024-01-11T03:18:05;37.43;;;25.90;;
16826;SDS011;8530;49.540;8.576;2024-01-11T03:20:32;32.33;;;24.50;;
16826;SDS011;8530;49.540;8.576;2024-01-11T03:22:59;39.97;;;27.47;;
16826;SDS011;8530;49.540;8.576;2024-01-11T03:25:26;39.93;;;27.43;;
16826;SDS011;8530;49.540;8.576;2024-01-11T03:27:53;38.77;;;27.50;;
16826;SDS011;8530;49.540;8.576;2024-01-11T03:30:20;35.90;;;25.50;;
16826;SDS011;8530;49.540;8.576;2024-01-11T03:32:48;37.37;;;26.03;;
16826;SDS011;8530;49.540;8.576;2024-01-11T03:35:14;37.63;;;27.03;;
16826;SDS011;8530;49.540;8.576;2024-01-11T03:37:41;38.03;;;25.00;;
16826;SDS011;8530;49.540;8.576;2024-01-11T03:40:08;35.40;;;25.20;;
16826;SDS011;8530;49.540;8.576;2024-01-11T03:42:35;36.83;;;25.43;;
16826;SDS011;8530;49.540;8.576;2024-01-11T03:45:02;36.03;;;27.70;;
16826;SDS011;8530;49.540;8.576;2024-01-11T03:47:29;37.43;;;27.63;;
16826;SDS011;8530;49.540;8.576;2024-01-11T03:49:57;29.40;;;24.60;;
16826;SDS011;8530;49.540;8.576;2024-01-11T03:52:24;35.53;;;25.00;;
16826;SDS011;8530;49.540;8.576;2024-01-11T03:54:50;37.37;;;27.30;;
16826;SDS011;8530;49.540;8.576;2024-01-11T03:57:17;40.00;;;24.80;;
16826;SDS011;8530;49.540;8.576;2024-01-11T03:59:44;33.07;;;25.20;;
16826;SDS011;8530;49.540;8.576;2024-01-11T04:02:11;43.90;;;25.60;;
16826;SDS011;8530;49.540;8.576;2024-01-11T04:04:37;36.27;;;27.10;;
16826;SDS011;8530;49.540;8.576;2024-01-11T04:07:05;35.07;;;27.17;;
16826;SDS011;8530;49.540;8.576;2024-01-11T04:09:32;35.10;;;26.50;;
16826;SDS011;8530;49.540;8.576;2024-01-11T04:11:58;33.97;;;27.90;;
16826;SDS011;8530;49.540;8.576;2024-01-11T04:14:25;33.13;;;25.23;;
16826;SDS011;8530;49.540;8.576;2024-01-11T04:16:52;34.43;;;26.93;;
16826;SDS011;8530;49.540;8.576;2024-01-11T04:19:18;38.50;;;29.03;;
16826;SDS011;8530;49.540;8.576;2024-01-11T04:21:45;41.27;;;28.57;;
16826;SDS011;8530;49.540;8.576;2024-01-11T04:24:13;37.40;;;27.60;;
16826;SDS011;8530;49.540;8.576;2024-01-11T04:26:40;36.17;;;26.93;;
16826;SDS011;8530;49.540;8.576;2024-01-11T04:29:06;35.50;;;26.53;;
16826;SDS011;8530;49.540;8.576;2024-01-11T04:31:33;38.57;;;28.60;;
16826;SDS011;8530;49.540;8.576;2024-01-11T04:34:00;52.60;;;28.67;;
16826;SDS011;8530;49.540;8.576;2024-01-11T04:36:26;35.50;;;25.20;;
16826;SDS011;8530;49.540;8.576;2024-01-11T04:38:53;41.60;;;28.10;;
16826;SDS011;8530;49.540;8.576;2024-01-11T04:41:21;40.23;;;27.77;;
16826;SDS011;8530;49.540;8.576;2024-01-11T04:43:48;36.50;;;25.90;;
16826;SDS011;8530;49.540;8.576;2024-01-11T04:46:15;37.80;;;29.67;;
16826;SDS011;8530;49.540;8.576;2024-01-11T04:48:42;38.80;;;29.40;;
16826;SDS011;8530;49.540;8.576;2024-01-11T04:51:09;36.77;;;27.17;;
16826;SDS011;8530;49.540;8.576;2024-01-11T04:53:37;39.60;;;28.60;;
16826;SDS011;8530;49.540;8.576;2024-01-11T04:56:05;41.07;;;30.37;;
16826;SDS011;8530;49.540;8.576;2024-01-11T04:58:34;33.43;;;26.33;;
16826;SDS011;8530;49.540;8.576;2024-01-11T05:01:02;36.67;;;27.67;;
16826;SDS011;8530;49.540;8.576;2024-01-11T05:03:29;40.87;;;30.50;;
16826;SDS011;8530;49.540;8.576;2024-01-11T05:05:56;42.80;;;31.50;;
16826;SDS011;8530;49.540;8.576;2024-01-11T05:08:23;35.53;;;26.07;;
16826;SDS011;8530;49.540;8.576;2024-01-11T05:10:50;32.80;;;26.60;;
16826;SDS011;8530;49.540;8.576;2024-01-11T05:13:17;41.30;;;29.37;;
16826;SDS011;8530;49.540;8.576;2024-01-11T05:15:45;39.40;;;30.17;;
16826;SDS011;8530;49.540;8.576;2024-01-11T05:18:12;39.60;;;29.47;;
16826;SDS011;8530;49.540;8.576;2024-01-11T05:20:39;40.50;;;29.47;;
16826;SDS011;8530;49.540;8.576;2024-01-11T05:23:06;37.77;;;28.00;;
16826;SDS011;8530;49.540;8.576;2024-01-11T05:25:33;44.20;;;31.77;;
16826;SDS011;8530;49.540;8.576;2024-01-11T05:28:00;43.57;;;31.30;;
16826;SDS011;8530;49.540;8.576;2024-01-11T05:30:27;42.30;;;30.73;;
16826;SDS011;8530;49.540;8.576;2024-01-11T05:32:55;40.27;;;30.53;;
16826;SDS011;8530;49.540;8.576;2024-01-11T05:35:23;49.13;;;33.47;;
16826;SDS011;8530;49.540;8.576;2024-01-11T05:37:52;44.47;;;32.57;;
16826;SDS011;8530;49.540;8.576;2024-01-11T05:40:19;39.57;;;31.20;;
16826;SDS011;8530;49.540;8.576;2024-01-11T05:42:46;42.73;;;32.20;;
16826;SDS011;8530;49.540;8.576;2024-01-11T05:45:13;50.20;;;33.63;;
16826;SDS011;8530;49.540;8.576;2024-01-11T05:47:41;47.77;;;33.27;;
16826;SDS011;8530;49.540;8.576;2024-01-11T05:50:10;51.07;;;33.63;;
16826;SDS011;8530;49.540;8.576;2024-01-11T05:52:37;50.13;;;32.63;;
16826;SDS011;8530;49.540;8.576;2024-01-11T05:55:04;48.57;;;34.70;;
16826;SDS011;8530;49.540;8.576;2024-01-11T05:57:31;48.03;;;32.00;;
16826;SDS011;8530;49.540;8.576;2024-01-11T05:59:57;50.33;;;37.87;;
16826;SDS011;8530;49.540;8.576;2024-01-11T06:02:24;52.10;;;37.10;;
16826;SDS011;8530;49.540;8.576;2024-01-11T06:04:51;54.20;;;35.60;;
16826;SDS011;8530;49.540;8.576;2024-01-11T06:07:19;47.60;;;34.20;;
16826;SDS011;8530;49.540;8.576;2024-01-11T06:09:45;52.60;;;36.87;;
16826;SDS011;8530;49.540;8.576;2024-01-11T06:12:12;48.47;;;35.50;;
16826;SDS011;8530;49.540;8.576;2024-01-11T06:14:39;53.17;;;39.10;;
16826;SDS011;8530;49.540;8.576;2024-01-11T06:17:05;45.93;;;35.50;;
16826;SDS011;8530;49.540;8.576;2024-01-11T06:19:35;49.00;;;34.17;;
16826;SDS011;8530;49.540;8.576;2024-01-11T06:22:02;53.33;;;35.30;;
16826;SDS011;8530;49.540;8.576;2024-01-11T06:24:31;51.20;;;34.47;;
16826;SDS011;8530;49.540;8.576;2024-01-11T06:26:57;58.50;;;37.40;;
16826;SDS011;8530;49.540;8.576;2024-01-11T06:29:24;51.60;;;38.37;;
16826;SDS011;8530;49.540;8.576;2024-01-11T06:31:51;53.20;;;37.93;;
16826;SDS011;8530;49.540;8.576;2024-01-11T06:34:17;54.97;;;37.20;;
16826;SDS011;8530;49.540;8.576;2024-01-11T06:36:44;52.80;;;37.13;;
16826;SDS011;8530;49.540;8.576;2024-01-11T06:39:11;53.03;;;38.93;;
16826;SDS011;8530;49.540;8.576;2024-01-11T06:41:39;53.40;;;37.50;;
16826;SDS011;8530;49.540;8.576;2024-01-11T06:44:05;54.60;;;38.50;;
16826;SDS011;8530;49.540;8.576;2024-01-11T06:46:32;53.47;;;38.63;;
16826;SDS011;8530;49.540;8.576;2024-01-11T06:49:01;52.17;;;38.93;;
16826;SDS011;8530;49.540;8.576;2024-01-11T06:51:28;46.57;;;34.80;;
16826;SDS011;8530;49.540;8.576;2024-01-11T06:53:55;53.50;;;38.13;;
16826;SDS011;8530;49.540;8.576;2024-01-11T06:56:21;58.67;;;40.17;;
16826;SDS011;8530;49.540;8.576;2024-01-11T06:58:50;59.07;;;40.27;;
16826;SDS011;8530;49.540;8.576;2024-01-11T07:01:17;57.10;;;38.70;;
16826;SDS011;8530;49.540;8.576;2024-01-11T07:03:44;65.20;;;43.37;;
16826;SDS011;8530;49.540;8.576;2024-01-11T07:06:10;55.83;;;39.03;;
16826;SDS011;8530;49.540;8.576;2024-01-11T07:08:37;50.97;;;37.73;;
16826;SDS011;8530;49.540;8.576;2024-01-11T07:11:04;52.40;;;35.80;;
16826;SDS011;8530;49.540;8.576;2024-01-11T07:13:32;52.30;;;38.47;;
16826;SDS011;8530;49.540;8.576;2024-01-11T07:16:00;55.03;;;37.70;;
16826;SDS011;8530;49.540;8.576;2024-01-11T07:18:28;55.93;;;39.60;;
16826;SDS011;8530;49.540;8.576;2024-01-11T07:20:55;53.30;;;38.07;;
16826;SDS011;8530;49.540;8.576;2024-01-11T07:23:23;52.63;;;35.93;;
16826;SDS011;8530;49.540;8.576;2024-01-11T07:25:50;63.43;;;40.83;;
16826;SDS011;8530;49.540;8.576;2024-01-11T07:28:16;57.43;;;40.30;;
16826;SDS011;8530;49.540;8.576;2024-01-11T07:30:44;57.77;;;40.87;;
16826;SDS011;8530;49.540;8.576;2024-01-11T07:33:12;53.03;;;37.77;;
16826;SDS011;8530;49.540;8.576;2024-01-11T07:35:39;66.10;;;41.23;;
16826;SDS011;8530;49.540;8.576;2024-01-11T07:38:06;62.97;;;43.50;;
16826;SDS011;8530;49.540;8.576;2024-01-11T07:40:32;55.70;;;39.57;;
16826;SDS011;8530;49.540;8.576;2024-01-11T07:42:59;58.87;;;39.03;;
16826;SDS011;8530;49.540;8.576;2024-01-11T07:45:26;63.53;;;42.50;;
16826;SDS011;8530;49.540;8.576;2024-01-11T07:47:52;56.90;;;41.70;;
16826;SDS011;8530;49.540;8.576;2024-01-11T07:50:20;58.33;;;40.70;;
16826;SDS011;8530;49.540;8.576;2024-01-11T07:52:47;59.10;;;42.60;;
16826;SDS011;8530;49.540;8.576;2024-01-11T07:55:14;54.67;;;38.03;;
16826;SDS011;8530;49.540;8.576;2024-01-11T07:57:41;60.37;;;41.10;;
16826;SDS011;8530;49.540;8.576;2024-01-11T08:00:08;53.20;;;37.50;;
16826;SDS011;8530;49.540;8.576;2024-01-11T08:02:35;66.10;;;42.63;;
16826;SDS011;8530;49.540;8.576;2024-01-11T08:05:03;59.60;;;37.43;;
16826;SDS011;8530;49.540;8.576;2024-01-11T08:07:31;52.90;;;39.33;;
16826;SDS011;8530;49.540;8.576;2024-01-11T08:09:58;68.63;;;43.77;;
16826;SDS011;8530;49.540;8.576;2024-01-11T08:12:24;60.57;;;42.53;;
16826;SDS011;8530;49.540;8.576;2024-01-11T08:14:51;60.73;;;42.07;;
16826;SDS011;8530;49.540;8.576;2024-01-11T08:17:18;61.77;;;43.13;;
16826;SDS011;8530;49.540;8.576;2024-01-11T08:19:45;63.43;;;44.20;;
16826;SDS011;8530;49.540;8.576;2024-01-11T08:22:12;54.13;;;40.43;;
16826;SDS011;8530;49.540;8.576;2024-01-11T08:24:40;52.27;;;35.33;;
16826;SDS011;8530;49.540;8.576;2024-01-11T08:27:06;53.07;;;39.27;;
16826;SDS011;8530;49.540;8.576;2024-01-11T08:29:33;66.87;;;36.90;;
16826;SDS011;8530;49.540;8.576;2024-01-11T08:32:00;49.70;;;34.13;;
16826;SDS011;8530;49.540;8.576;2024-01-11T08:34:29;53.80;;;34.87;;
16826;SDS011;8530;49.540;8.576;2024-01-11T08:36:55;52.27;;;35.47;;
16826;SDS011;8530;49.540;8.576;2024-01-11T08:39:23;59.63;;;36.60;;
16826;SDS011;8530;49.540;8.576;2024-01-11T08:41:51;53.77;;;36.03;;
16826;SDS011;8530;49.540;8.576;2024-01-11T08:44:18;59.63;;;37.80;;
16826;SDS011;8530;49.540;8.576;2024-01-11T08:46:44;52.27;;;33.70;;
16826;SDS011;8530;49.540;8.576;2024-01-11T08:49:11;53.13;;;37.10;;
16826;SDS011;8530;49.540;8.576;2024-01-11T08:51:38;53.80;;;36.43;;
16826;SDS011;8530;49.540;8.576;2024-01-11T08:54:04;53.80;;;37.30;;
16826;SDS011;8530;49.540;8.576;2024-01-11T08:56:33;56.50;;;38.03;;
16826;SDS011;8530;49.540;8.576;2024-01-11T08:59:02;56.03;;;35.40;;
16826;SDS011;8530;49.540;8.576;2024-01-11T09:01:28;63.27;;;40.97;;
16826;SDS011;8530;49.540;8.576;2024-01-11T09:03:55;61.37;;;39.53;;
16826;SDS011;8530;49.540;8.576;2024-01-11T09:06:23;62.27;;;39.67;;
16826;SDS011;8530;49.540;8.576;2024-01-11T09:08:49;57.27;;;37.60;;
16826;SDS011;8530;49.540;8.576;2024-01-11T09:11:17;57.43;;;36.90;;
16826;SDS011;8530;49.540;8.576;2024-01-11T09:13:44;59.90;;;37.63;;
16826;SDS011;8530;49.540;8.576;2024-01-11T09:16:15;59.60;;;39.03;;
16826;SDS011;8530;49.540;8.576;2024-01-11T09:18:42;63.17;;;41.83;;
16826;SDS011;8530;49.540;8.576;2024-01-11T09:21:09;59.03;;;37.73;;
16826;SDS011;8530;49.540;8.576;2024-01-11T09:23:37;53.90;;;36.10;;
16826;SDS011;8530;49.540;8.576;2024-01-11T09:26:04;59.13;;;35.93;;
16826;SDS011;8530;49.540;8.576;2024-01-11T09:28:31;58.63;;;38.80;;
16826;SDS011;8530;49.540;8.576;2024-01-11T09:30:57;58.73;;;39.07;;
16826;SDS011;8530;49.540;8.576;2024-01-11T09:33:28;59.80;;;39.37;;
16826;SDS011;8530;49.540;8.576;2024-01-11T09:35:54;55.13;;;37.47;;
16826;SDS011;8530;49.540;8.576;2024-01-11T09:38:21;50.37;;;35.80;;
16826;SDS011;8530;49.540;8.576;2024-01-11T09:40:48;61.33;;;35.83;;
16826;SDS011;8530;49.540;8.576;2024-01-11T09:43:22;48.97;;;34.17;;
16826;SDS011;8530;49.540;8.576;2024-01-11T09:45:48;54.40;;;36.30;;
16826;SDS011;8530;49.540;8.576;2024-01-11T09:48:16;62.57;;;38.07;;
16826;SDS011;8530;49.540;8.576;2024-01-11T09:50:46;56.23;;;36.10;;
16826;SDS011;8530;49.540;8.576;2024-01-11T09:53:14;57.93;;;36.53;;
16826;SDS011;8530;49.540;8.576;2024-01-11T09:55:43;48.83;;;33.90;;
16826;SDS011;8530;49.540;8.576;2024-01-11T09:58:10;54.00;;;36.30;;
16826;SDS011;8530;49.540;8.576;2024-01-11T10:00:37;54.40;;;36.63;;
16826;SDS011;8530;49.540;8.576;2024-01-11T10:03:06;56.80;;;36.10;;
16826;SDS011;8530;49.540;8.576;2024-01-11T10:05:33;55.37;;;35.57;;
16826;SDS011;8530;49.540;8.576;2024-01-11T10:08:02;52.17;;;34.77;;
16826;SDS011;8530;49.540;8.576;2024-01-11T10:10:29;51.10;;;33.30;;
16826;SDS011;8530;49.540;8.576;2024-01-11T10:12:56;51.10;;;35.47;;
16826;SDS011;8530;49.540;8.576;2024-01-11T10:15:24;50.90;;;35.60;;
16826;SDS011;8530;49.540;8.576;2024-01-11T10:17:50;55.97;;;34.97;;
16826;SDS011;8530;49.540;8.576;2024-01-11T10:20:17;57.70;;;36.10;;
16826;SDS011;8530;49.540;8.576;2024-01-11T10:22:48;53.20;;;34.10;;
16826;SDS011;8530;49.540;8.576;2024-01-11T10:25:17;48.17;;;33.37;;
16826;SDS011;8530;49.540;8.576;2024-01-11T10:27:44;55.30;;;34.13;;
16826;SDS011;8530;49.540;8.576;2024-01-11T10:30:12;51.90;;;34.47;;
16826;SDS011;8530;49.540;8.576;2024-01-11T10:32:41;53.27;;;34.60;;
16826;SDS011;8530;49.540;8.576;2024-01-11T10:35:07;54.27;;;35.20;;
16826;SDS011;8530;49.540;8.576;2024-01-11T10:37:34;53.30;;;35.70;;
16826;SDS011;8530;49.540;8.576;2024-01-11T10:40:04;45.00;;;31.23;;
16826;SDS011;8530;49.540;8.576;2024-01-11T10:42:37;46.90;;;32.63;;
16826;SDS011;8530;49.540;8.576;2024-01-11T10:45:08;58.03;;;34.43;;
16826;SDS011;8530;49.540;8.576;2024-01-11T10:47:39;56.13;;;35.50;;
16826;SDS011;8530;49.540;8.576;2024-01-11T10:50:12;50.13;;;32.07;;
16826;SDS011;8530;49.540;8.576;2024-01-11T10:52:42;54.10;;;35.07;;
16826;SDS011;8530;49.540;8.576;2024-01-11T10:55:26;61.80;;;36.57;;
16826;SDS011;8530;49.540;8.576;2024-01-11T10:57:54;50.70;;;32.43;;
16826;SDS011;8530;49.540;8.576;2024-01-11T11:00:23;47.47;;;32.10;;
16826;SDS011;8530;49.540;8.576;2024-01-11T11:02:50;50.93;;;32.63;;
16826;SDS011;8530;49.540;8.576;2024-01-11T11:05:20;49.00;;;31.50;;
16826;SDS011;8530;49.540;8.576;2024-01-11T11:07:47;47.57;;;31.80;;
16826;SDS011;8530;49.540;8.576;2024-01-11T11:10:15;48.07;;;34.10;;
16826;SDS011;8530;49.540;8.576;2024-01-11T11:12:43;53.53;;;33.77;;
16826;SDS011;8530;49.540;8.576;2024-01-11T11:15:13;53.63;;;32.90;;
16826;SDS011;8530;49.540;8.576;2024-01-11T11:17:40;54.67;;;34.73;;
16826;SDS011;8530;49.540;8.576;2024-01-11T11:20:08;52.33;;;32.70;;
16826;SDS011;8530;49.540;8.576;2024-01-11T11:22:37;55.63;;;35.30;;
16826;SDS011;8530;49.540;8.576;2024-01-11T11:25:06;48.77;;;33.07;;
16826;SDS011;8530;49.540;8.576;2024-01-11T11:27:35;50.83;;;35.17;;
16826;SDS011;8530;49.540;8.576;2024-01-11T11:30:02;55.03;;;35.27;;
16826;SDS011;8530;49.540;8.576;2024-01-11T11:32:39;56.23;;;35.60;;
16826;SDS011;8530;49.540;8.576;2024-01-11T11:35:09;54.60;;;33.90;;
16826;SDS011;8530;49.540;8.576;2024-01-11T11:37:36;48.97;;;33.57;;
16826;SDS011;8530;49.540;8.576;2024-01-11T11:40:04;54.40;;;32.90;;
16826;SDS011;8530;49.540;8.576;2024-01-11T11:42:33;47.17;;;32.00;;
16826;SDS011;8530;49.540;8.576;2024-01-11T11:45:01;52.23;;;34.47;;
16826;SDS011;8530;49.540;8.576;2024-01-11T11:47:33;50.10;;;34.90;;
16826;SDS011;8530;49.540;8.576;2024-01-11T11:50:07;56.37;;;34.40;;
16826;SDS011;8530;49.540;8.576;2024-01-11T11:52:35;53.40;;;34.47;;
16826;SDS011;8530;49.540;8.576;2024-01-11T11:55:04;57.33;;;34.10;;
16826;SDS011;8530;49.540;8.576;2024-01-11T11:57:33;52.00;;;32.20;;
16826;SDS011;8530;49.540;8.576;2024-01-11T12:00:00;47.53;;;31.53;;
16826;SDS011;8530;49.540;8.576;2024-01-11T12:02:30;50.10;;;33.60;;
16826;SDS011;8530;49.540;8.576;2024-01-11T12:04:57;50.47;;;33.50;;
16826;SDS011;8530;49.540;8.576;2024-01-11T12:07:25;53.40;;;33.50;;
16826;SDS011;8530;49.540;8.576;2024-01-11T12:09:53;47.63;;;32.83;;
16826;SDS011;8530;49.540;8.576;2024-01-11T12:12:20;48.10;;;33.57;;
16826;SDS011;8530;49.540;8.576;2024-01-11T12:14:46;52.30;;;33.50;;
16826;SDS011;8530;49.540;8.576;2024-01-11T12:17:13;54.30;;;32.27;;
16826;SDS011;8530;49.540;8.576;2024-01-11T12:19:40;48.13;;;33.40;;
16826;SDS011;8530;49.540;8.576;2024-01-11T12:22:07;46.53;;;30.93;;
16826;SDS011;8530;49.540;8.576;2024-01-11T12:24:35;51.13;;;33.57;;
16826;SDS011;8530;49.540;8.576;2024-01-11T12:27:02;46.23;;;31.10;;
16826;SDS011;8530;49.540;8.576;2024-01-11T12:29:29;51.57;;;32.40;;
16826;SDS011;8530;49.540;8.576;2024-01-11T12:31:57;46.27;;;31.03;;
16826;SDS011;8530;49.540;8.576;2024-01-11T12:34:24;44.40;;;30.33;;
16826;SDS011;8530;49.540;8.576;2024-01-11T12:36:51;51.47;;;33.10;;
16826;SDS011;8530;49.540;8.576;2024-01-11T12:39:19;50.90;;;35.40;;
16826;SDS011;8530;49.540;8.576;2024-01-11T12:41:48;47.03;;;31.20;;
16826;SDS011;8530;49.540;8.576;2024-01-11T12:44:16;52.07;;;31.90;;
16826;SDS011;8530;49.540;8.576;2024-01-11T12:46:44;54.17;;;34.07;;
16826;SDS011;8530;49.540;8.576;2024-01-11T12:49:10;51.83;;;32.20;;
16826;SDS011;8530;49.540;8.576;2024-01-11T12:51:37;43.40;;;29.83;;
16826;SDS011;8530;49.540;8.576;2024-01-11T12:54:05;50.10;;;35.03;;
16826;SDS011;8530;49.540;8.576;2024-01-11T12:56:40;51.43;;;33.13;;
16826;SDS011;8530;49.540;8.576;2024-01-11T12:59:09;41.53;;;30.00;;
16826;SDS011;8530;49.540;8.576;2024-01-11T13:01:37;44.70;;;31.10;;
16826;SDS011;8530;49.540;8.576;2024-01-11T13:04:04;44.67;;;30.93;;
16826;SDS011;8530;49.540;8.576;2024-01-11T13:06:31;43.33;;;28.70;;
16826;SDS011;8530;49.540;8.576;2024-01-11T13:08:59;40.80;;;28.90;;
16826;SDS011;8530;49.540;8.576;2024-01-11T13:11:26;47.63;;;29.20;;
16826;SDS011;8530;49.540;8.576;2024-01-11T13:13:53;41.63;;;27.70;;
16826;SDS011;8530;49.540;8.576;2024-01-11T13:16:24;36.47;;;29.07;;
16826;SDS011;8530;49.540;8.576;2024-01-11T13:18:51;41.70;;;28.57;;
16826;SDS011;8530;49.540;8.576;2024-01-11T13:21:17;45.33;;;26.60;;
16826;SDS011;8530;49.540;8.576;2024-01-11T13:23:44;45.70;;;28.80;;
16826;SDS011;8530;49.540;8.576;2024-01-11T13:26:11;46.00;;;29.70;;
16826;SDS011;8530;49.540;8.576;2024-01-11T13:28:37;51.20;;;29.47;;
16826;SDS011;8530;49.540;8.576;2024-01-11T13:31:05;43.83;;;30.53;;
16826;SDS011;8530;49.540;8.576;2024-01-11T13:33:36;46.93;;;30.67;;
16826;SDS011;8530;49.540;8.576;2024-01-11T13:36:03;49.10;;;30.93;;
16826;SDS011;8530;49.540;8.576;2024-01-11T13:38:30;41.63;;;27.00;;
16826;SDS011;8530;49.540;8.576;2024-01-11T13:40:57;53.57;;;31.73;;
16826;SDS011;8530;49.540;8.576;2024-01-11T13:43:23;44.60;;;30.67;;
16826;SDS011;8530;49.540;8.576;2024-01-11T13:45:50;49.87;;;30.73;;
16826;SDS011;8530;49.540;8.576;2024-01-11T13:48:17;42.00;;;29.40;;
16826;SDS011;8530;49.540;8.576;2024-01-11T13:50:45;45.67;;;29.40;;
16826;SDS011;8530;49.540;8.576;2024-01-11T13:53:12;45.10;;;30.23;;
16826;SDS011;8530;49.540;8.576;2024-01-11T13:55:38;43.97;;;29.77;;
16826;SDS011;8530;49.540;8.576;2024-01-11T13:58:05;42.17;;;28.87;;
16826;SDS011;8530;49.540;8.576;2024-01-11T14:00:32;50.80;;;30.30;;
16826;SDS011;8530;49.540;8.576;2024-01-11T14:02:58;49.33;;;31.27;;
16826;SDS011;8530;49.540;8.576;2024-01-11T14:05:25;52.30;;;32.43;;
16826;SDS011;8530;49.540;8.576;2024-01-11T14:07:53;43.27;;;30.87;;
16826;SDS011;8530;49.540;8.576;2024-01-11T14:10:23;49.03;;;30.07;;
16826;SDS011;8530;49.540;8.576;2024-01-11T14:12:50;42.57;;;30.50;;
16826;SDS011;8530;49.540;8.576;2024-01-11T14:15:17;48.30;;;31.33;;
16826;SDS011;8530;49.540;8.576;2024-01-11T14:17:44;47.40;;;32.40;;
16826;SDS011;8530;49.540;8.576;2024-01-11T14:20:11;47.73;;;31.07;;
16826;SDS011;8530;49.540;8.576;2024-01-11T14:22:39;43.03;;;30.47;;
16826;SDS011;8530;49.540;8.576;2024-01-11T14:25:08;43.10;;;30.27;;
16826;SDS011;8530;49.540;8.576;2024-01-11T14:27:36;40.20;;;29.07;;
16826;SDS011;8530;49.540;8.576;2024-01-11T14:30:04;45.00;;;30.70;;
16826;SDS011;8530;49.540;8.576;2024-01-11T14:32:31;47.53;;;27.60;;
16826;SDS011;8530;49.540;8.576;2024-01-11T14:34:58;48.40;;;29.43;;